createdAt,value
2018-09-20T00:00:51.133Z,10.96
2018-09-20T00:03:19.536Z,10.96
2018-09-20T00:05:48.059Z,11.00
2018-09-20T00:08:16.452Z,10.87
2018-09-20T00:10:44.791Z,10.83
2018-09-20T00:13:13.197Z,10.75
2018-09-20T00:15:41.588Z,10.71
2018-09-20T00:18:10.071Z,10.73
2018-09-20T00:20:38.608Z,10.67
2018-09-20T00:23:07.031Z,10.68
2018-09-20T00:25:35.639Z,10.72
2018-09-20T00:28:04.099Z,10.73
2018-09-20T00:30:32.489Z,10.71
2018-09-20T00:33:00.963Z,10.70
2018-09-20T00:35:29.494Z,10.61
2018-09-20T00:37:57.782Z,10.55
2018-09-20T00:40:26.135Z,10.63
2018-09-20T00:42:54.462Z,10.55
2018-09-20T00:45:22.982Z,10.57
2018-09-20T00:47:51.458Z,10.51
2018-09-20T00:50:19.831Z,10.44
2018-09-20T00:52:48.161Z,10.47
2018-09-20T00:55:16.664Z,10.44
2018-09-20T00:57:45.007Z,10.37
2018-09-20T01:00:13.394Z,10.31
2018-09-20T01:02:41.840Z,10.32
2018-09-20T01:05:10.225Z,10.35
2018-09-20T01:07:38.676Z,10.32
2018-09-20T01:10:06.894Z,10.30
2018-09-20T01:12:34.967Z,10.23
2018-09-20T01:15:03.246Z,10.22
2018-09-20T01:17:31.399Z,10.19
2018-09-20T01:19:59.572Z,10.23
2018-09-20T01:22:27.725Z,10.22
2018-09-20T01:24:56.002Z,10.21
2018-09-20T01:27:24.210Z,10.26
2018-09-20T01:29:52.403Z,10.15
2018-09-20T01:32:20.483Z,10.05
2018-09-20T01:34:48.699Z,10.02
2018-09-20T01:37:16.853Z,10.01
2018-09-20T01:39:45.014Z,10.03
2018-09-20T01:42:13.144Z,9.99
2018-09-20T01:44:41.372Z,9.85
2018-09-20T01:47:09.509Z,9.88
2018-09-20T01:49:37.723Z,9.91
2018-09-20T01:52:05.847Z,9.82
2018-09-20T01:54:34.022Z,9.74
2018-09-20T01:57:02.158Z,9.65
2018-09-20T01:59:30.338Z,9.65
2018-09-20T02:01:58.504Z,9.62
2018-09-20T02:04:26.700Z,9.68
2018-09-20T02:06:54.836Z,9.65
2018-09-20T02:09:22.962Z,9.68
2018-09-20T02:11:51.133Z,9.74
2018-09-20T02:14:19.360Z,9.72
2018-09-20T02:16:47.565Z,9.72
2018-09-20T02:19:15.641Z,9.76
2018-09-20T02:21:43.832Z,9.69
2018-09-20T02:24:12.081Z,9.74
2018-09-20T02:26:40.283Z,9.73
2018-09-20T02:29:08.364Z,9.62
2018-09-20T02:31:36.740Z,9.54
2018-09-20T02:34:04.834Z,9.45
2018-09-20T02:36:32.940Z,9.37
2018-09-20T02:39:01.242Z,9.33
2018-09-20T02:41:29.425Z,9.27
2018-09-20T02:43:57.693Z,9.15
2018-09-20T02:46:25.987Z,9.11
2018-09-20T02:48:54.150Z,9.07
2018-09-20T02:51:22.251Z,9.02
2018-09-20T02:53:50.505Z,8.95
2018-09-20T02:56:18.763Z,8.94
2018-09-20T02:58:46.986Z,9.03
2018-09-20T03:01:15.154Z,9.06
2018-09-20T03:03:43.327Z,8.89
2018-09-20T03:06:11.491Z,8.86
2018-09-20T03:08:39.611Z,8.77
2018-09-20T03:11:07.757Z,8.84
2018-09-20T03:13:35.961Z,8.79
2018-09-20T03:16:04.222Z,8.71
2018-09-20T03:18:32.509Z,8.68
2018-09-20T03:21:00.744Z,8.66
2018-09-20T03:23:29.054Z,8.71
2018-09-20T03:25:57.246Z,8.60
2018-09-20T03:28:25.403Z,8.60
2018-09-20T03:30:53.777Z,8.51
2018-09-20T03:33:21.834Z,8.51
2018-09-20T03:35:50.022Z,8.48
2018-09-20T03:38:18.327Z,8.50
2018-09-20T03:40:46.561Z,8.65
2018-09-20T03:43:14.765Z,8.69
2018-09-20T03:45:43.010Z,8.64
2018-09-20T03:48:11.111Z,8.71
2018-09-20T03:50:39.594Z,8.71
2018-09-20T03:53:08.039Z,8.69
2018-09-20T03:55:36.513Z,8.59
2018-09-20T03:58:05.138Z,8.48
2018-09-20T04:00:33.766Z,8.51
2018-09-20T04:03:02.293Z,8.58
2018-09-20T04:05:30.620Z,8.59
2018-09-20T04:07:59.069Z,8.52
2018-09-20T04:10:27.919Z,8.57
2018-09-20T04:12:56.749Z,8.73
2018-09-20T04:15:25.637Z,8.70
2018-09-20T04:17:54.019Z,8.50
2018-09-20T04:20:22.559Z,8.44
2018-09-20T04:22:51.123Z,8.29
2018-09-20T04:25:20.542Z,8.29
2018-09-20T04:27:48.903Z,8.20
2018-09-20T04:30:17.384Z,8.19
2018-09-20T04:32:45.803Z,8.24
2018-09-20T04:35:14.331Z,8.32
2018-09-20T04:37:43.080Z,8.32
2018-09-20T04:40:11.516Z,8.24
2018-09-20T04:42:39.982Z,8.18
2018-09-20T04:45:08.731Z,8.21
2018-09-20T04:47:37.170Z,8.29
2018-09-20T04:50:06.072Z,8.35
2018-09-20T04:52:34.578Z,8.45
2018-09-20T04:55:02.998Z,8.58
2018-09-20T04:57:31.510Z,8.69
2018-09-20T05:00:00.199Z,8.86
2018-09-20T05:02:28.721Z,9.66
2018-09-20T05:04:57.155Z,10.92
2018-09-20T05:07:26.126Z,12.16
2018-09-20T05:09:54.737Z,13.17
2018-09-20T05:12:23.313Z,13.59
2018-09-20T05:14:51.816Z,13.94
2018-09-20T05:17:20.618Z,13.05
2018-09-20T05:19:49.256Z,12.70
2018-09-20T05:22:17.692Z,12.97
2018-09-20T05:24:46.260Z,13.21
2018-09-20T05:27:14.719Z,13.19
2018-09-20T05:29:43.236Z,13.57
2018-09-20T05:32:11.830Z,13.67
2018-09-20T05:34:40.460Z,13.95
2018-09-20T05:37:09.536Z,13.88
2018-09-20T05:39:38.378Z,13.90
2018-09-20T05:42:07.161Z,13.93
2018-09-20T05:44:37.161Z,14.15
2018-09-20T05:47:05.800Z,14.29
2018-09-20T05:49:34.344Z,14.57
2018-09-20T05:52:02.902Z,14.55
2018-09-20T05:54:32.483Z,14.81
2018-09-20T05:57:02.021Z,14.96
2018-09-20T05:59:31.703Z,14.98
2018-09-20T06:06:08.086Z,15.41
2018-09-20T06:08:37.159Z,15.97
2018-09-20T06:11:05.849Z,15.96
2018-09-20T06:13:34.348Z,16.32
2018-09-20T06:16:03.655Z,16.41
2018-09-20T06:18:32.576Z,16.07
2018-09-20T06:21:00.957Z,16.32
2018-09-20T06:23:29.393Z,16.55
2018-09-20T06:25:58.275Z,16.74
2018-09-20T06:28:26.854Z,17.06
2018-09-20T06:30:55.431Z,16.93
2018-09-20T06:33:24.275Z,16.55
2018-09-20T06:35:52.901Z,15.96
2018-09-20T06:38:24.672Z,16.23
2018-09-20T06:40:53.534Z,16.75
2018-09-20T06:43:22.010Z,17.11
2018-09-20T06:45:50.721Z,17.28
2018-09-20T06:48:20.401Z,17.70
2018-09-20T06:50:49.015Z,17.85
2018-09-20T06:53:17.752Z,18.07
2018-09-20T06:55:46.341Z,18.18
2018-09-20T06:58:15.788Z,18.20
2018-09-20T07:00:44.762Z,18.42
2018-09-20T07:03:15.501Z,18.44
2018-09-20T07:05:44.167Z,18.46
2018-09-20T07:08:13.131Z,18.96
2018-09-20T07:10:41.840Z,18.92
2018-09-20T07:13:10.542Z,19.05
2018-09-20T07:15:39.185Z,18.85
2018-09-20T07:18:07.763Z,18.80
2018-09-20T07:20:36.168Z,18.46
2018-09-20T07:23:04.706Z,18.70
2018-09-20T07:25:33.469Z,18.56
2018-09-20T07:28:02.125Z,19.07
2018-09-20T07:30:30.580Z,19.46
2018-09-20T07:32:59.187Z,19.61
2018-09-20T07:35:27.849Z,19.69
2018-09-20T07:37:56.491Z,19.90
2018-09-20T07:40:25.073Z,20.03
2018-09-20T07:42:53.552Z,20.13
2018-09-20T07:45:22.341Z,20.24
2018-09-20T07:47:50.862Z,20.27
2018-09-20T07:50:19.387Z,20.40
2018-09-20T07:52:48.090Z,20.37
2018-09-20T07:55:18.021Z,20.73
2018-09-20T07:57:46.715Z,20.72
2018-09-20T08:00:15.403Z,20.67
2018-09-20T08:02:43.832Z,20.88
2018-09-20T08:05:12.412Z,20.94
2018-09-20T08:07:41.150Z,21.41
2018-09-20T08:10:09.811Z,21.18
2018-09-20T08:12:38.255Z,21.31
2018-09-20T08:15:07.510Z,21.39
2018-09-20T08:17:36.321Z,21.69
2018-09-20T08:20:04.961Z,21.60
2018-09-20T08:22:33.399Z,21.83
2018-09-20T08:25:01.870Z,22.19
2018-09-20T08:27:30.320Z,22.41
2018-09-20T08:29:58.835Z,22.39
2018-09-20T08:32:27.538Z,22.45
2018-09-20T08:34:56.431Z,22.51
2018-09-20T08:37:24.910Z,22.69
2018-09-20T08:39:53.619Z,22.80
2018-09-20T08:42:22.067Z,22.95
2018-09-20T08:44:50.758Z,23.03
2018-09-20T08:47:19.626Z,23.17
2018-09-20T08:49:48.161Z,23.09
2018-09-20T08:52:17.003Z,23.17
2018-09-20T08:54:45.747Z,23.29
2018-09-20T08:57:14.206Z,23.54
2018-09-20T08:59:42.781Z,23.68
2018-09-20T09:02:11.155Z,23.82
2018-09-20T09:04:40.068Z,24.01
2018-09-20T09:07:08.543Z,24.16
2018-09-20T09:09:36.580Z,24.47
2018-09-20T09:12:05.170Z,24.45
2018-09-20T09:14:33.662Z,24.76
2018-09-20T09:17:02.002Z,24.61
2018-09-20T09:19:30.242Z,24.32
2018-09-20T09:21:58.412Z,24.55
2018-09-20T09:24:26.940Z,24.97
2018-09-20T09:26:55.527Z,24.61
2018-09-20T09:29:23.922Z,24.52
2018-09-20T09:31:52.130Z,24.86
2018-09-20T09:34:20.357Z,25.06
2018-09-20T09:36:48.645Z,24.94
2018-09-20T09:39:16.840Z,25.31
2018-09-20T09:41:44.897Z,25.40
2018-09-20T09:44:13.002Z,25.36
2018-09-20T09:46:41.203Z,25.60
2018-09-20T09:49:09.347Z,25.55
2018-09-20T09:51:37.512Z,25.62
2018-09-20T09:54:05.665Z,25.84
2018-09-20T09:56:33.838Z,26.01
2018-09-20T09:59:02.154Z,26.05
2018-09-20T10:01:30.428Z,26.02
2018-09-20T10:03:58.771Z,26.17
2018-09-20T10:06:27.173Z,26.43
2018-09-20T10:08:55.262Z,26.60
2018-09-20T10:11:23.400Z,26.72
2018-09-20T10:13:51.711Z,26.78
2018-09-20T10:16:19.825Z,26.66
2018-09-20T10:18:47.968Z,26.61
2018-09-20T10:21:16.180Z,26.53
2018-09-20T10:23:44.453Z,26.56
2018-09-20T10:26:12.574Z,26.65
2018-09-20T10:28:40.900Z,26.41
2018-09-20T10:31:08.998Z,26.44
2018-09-20T10:33:37.385Z,26.52
2018-09-20T10:36:05.672Z,26.76
2018-09-20T10:38:33.873Z,26.91
2018-09-20T10:41:04.077Z,26.90
2018-09-20T10:43:32.753Z,27.40
2018-09-20T10:46:01.556Z,26.93
2018-09-20T10:48:31.153Z,26.38
2018-09-20T10:51:01.069Z,26.15
2018-09-20T10:53:30.323Z,26.07
2018-09-20T10:56:00.401Z,25.92
2018-09-20T10:58:29.702Z,25.56
2018-09-20T11:00:57.985Z,25.56
2018-09-20T11:03:26.434Z,25.56
2018-09-20T11:05:54.855Z,25.35
2018-09-20T11:08:24.106Z,25.77
2018-09-20T11:10:53.364Z,25.78
2018-09-20T11:13:23.398Z,25.79
2018-09-20T11:15:52.877Z,26.03
2018-09-20T11:18:22.117Z,26.02
2018-09-20T11:20:52.551Z,26.25
2018-09-20T11:23:21.216Z,25.79
2018-09-20T11:25:50.670Z,25.41
2018-09-20T11:28:19.551Z,25.85
2018-09-20T11:30:48.257Z,26.19
2018-09-20T11:33:17.058Z,25.89
2018-09-20T11:35:46.311Z,25.89
2018-09-20T11:38:14.972Z,26.24
2018-09-20T11:40:43.811Z,26.15
2018-09-20T11:43:13.438Z,26.17
2018-09-20T11:45:42.127Z,26.52
2018-09-20T11:48:11.235Z,26.47
2018-09-20T11:50:39.829Z,26.51
2018-09-20T11:53:08.105Z,26.65
2018-09-20T11:55:36.334Z,26.53
2018-09-20T11:58:07.912Z,26.35
2018-09-20T12:00:36.534Z,26.35
2018-09-20T12:03:04.907Z,26.18
2018-09-20T12:05:33.262Z,26.10
2018-09-20T12:08:02.040Z,26.32
2018-09-20T12:10:30.649Z,26.46
2018-09-20T12:12:59.071Z,26.08
2018-09-20T12:15:27.424Z,26.02
2018-09-20T12:17:55.604Z,25.99
2018-09-20T12:20:23.796Z,25.73
2018-09-20T12:22:52.683Z,25.68
2018-09-20T12:25:21.057Z,25.99
2018-09-20T12:31:00.822Z,26.53
2018-09-20T12:33:28.979Z,26.63
2018-09-20T12:35:57.625Z,26.49
2018-09-20T12:38:26.229Z,26.21
2018-09-20T12:40:55.053Z,26.33
2018-09-20T12:43:23.533Z,26.34
2018-09-20T12:45:52.230Z,26.38
2018-09-20T12:48:20.992Z,26.40
2018-09-20T12:50:49.642Z,26.37
2018-09-20T12:53:18.236Z,26.19
2018-09-20T12:55:47.752Z,26.24
2018-09-20T12:58:16.295Z,26.34
2018-09-20T13:00:44.941Z,26.37
2018-09-20T13:03:13.934Z,26.44
2018-09-20T13:05:42.637Z,26.41
2018-09-20T13:08:11.462Z,26.41
2018-09-20T13:10:40.335Z,26.23
2018-09-20T13:13:09.232Z,26.20
2018-09-20T13:15:37.933Z,26.17
2018-09-20T13:18:06.878Z,26.04
2018-09-20T13:20:35.542Z,25.86
2018-09-20T13:23:04.328Z,25.84
2018-09-20T13:25:32.919Z,25.92
2018-09-20T13:28:01.598Z,26.07
2018-09-20T13:30:30.360Z,26.09
2018-09-20T13:32:58.882Z,26.16
2018-09-20T13:35:28.350Z,26.08
2018-09-20T13:37:57.426Z,25.97
2018-09-20T13:40:26.134Z,25.88
2018-09-20T13:42:54.701Z,25.82
2018-09-20T13:45:23.304Z,25.75
2018-09-20T13:47:51.900Z,25.83
2018-09-20T13:50:20.392Z,25.79
2018-09-20T13:52:49.145Z,25.69
2018-09-20T13:55:17.776Z,25.73
2018-09-20T13:57:46.529Z,25.74
2018-09-20T14:00:15.289Z,25.73
2018-09-20T14:02:43.884Z,25.81
2018-09-20T14:05:12.420Z,25.62
2018-09-20T14:07:40.869Z,25.40
2018-09-20T14:10:10.488Z,25.32
2018-09-20T14:12:38.959Z,25.25
2018-09-20T14:15:07.536Z,25.27
2018-09-20T14:17:36.519Z,25.10
2018-09-20T14:20:04.968Z,25.10
2018-09-20T14:22:33.988Z,25.22
2018-09-20T14:25:02.712Z,25.08
2018-09-20T14:27:31.851Z,25.07
2018-09-20T14:30:00.854Z,25.11
2018-09-20T14:32:29.690Z,25.06
2018-09-20T14:34:58.170Z,24.98
2018-09-20T14:37:27.573Z,24.98
2018-09-20T14:39:56.618Z,24.85
2018-09-20T14:42:25.181Z,24.82
2018-09-20T14:44:53.739Z,24.71
2018-09-20T14:47:22.558Z,24.58
2018-09-20T14:49:51.214Z,24.36
2018-09-20T14:52:19.807Z,24.24
2018-09-20T14:54:48.234Z,24.16
2018-09-20T14:57:16.811Z,24.15
2018-09-20T14:59:45.492Z,24.00
2018-09-20T15:02:16.299Z,23.90
2018-09-20T15:04:47.031Z,23.79
2018-09-20T15:07:19.943Z,23.65
2018-09-20T15:09:51.922Z,23.71
2018-09-20T15:12:23.190Z,23.58
2018-09-20T15:14:52.716Z,23.53
2018-09-20T15:17:21.749Z,23.29
2018-09-20T15:19:51.388Z,23.11
2018-09-20T15:22:20.243Z,22.89
2018-09-20T15:24:48.864Z,22.88
2018-09-20T15:27:17.414Z,22.78
2018-09-20T15:29:46.458Z,22.71
2018-09-20T15:32:15.256Z,22.54
2018-09-20T15:34:44.126Z,22.37
2018-09-20T15:37:12.470Z,22.29
2018-09-20T15:39:40.558Z,22.19
2018-09-20T15:42:08.830Z,21.92
2018-09-20T15:44:36.928Z,21.64
2018-09-20T15:47:05.374Z,21.38
2018-09-20T15:49:33.632Z,21.26
2018-09-20T15:52:01.917Z,21.31
2018-09-20T15:54:30.011Z,21.14
2018-09-20T15:56:58.437Z,21.16
2018-09-20T15:59:26.693Z,21.01
2018-09-20T16:01:54.831Z,20.83
2018-09-20T16:04:22.986Z,20.57
2018-09-20T16:06:51.194Z,20.45
2018-09-20T16:09:19.286Z,20.26
2018-09-20T16:11:47.476Z,20.00
2018-09-20T16:14:15.675Z,19.92
2018-09-20T16:16:44.009Z,20.18
2018-09-20T16:19:12.446Z,19.98
2018-09-20T16:21:40.735Z,19.82
2018-09-20T16:24:09.466Z,19.87
2018-09-20T16:26:37.807Z,19.88
2018-09-20T16:31:23.746Z,19.98
2018-09-20T16:34:06.672Z,19.68
2018-09-20T16:36:42.399Z,19.63
2018-09-20T16:39:15.969Z,19.65
2018-09-20T16:41:54.989Z,19.61
2018-09-20T16:44:23.844Z,19.67
2018-09-20T16:46:53.894Z,19.49
2018-09-20T16:49:22.206Z,19.33
2018-09-20T16:51:50.467Z,19.29
2018-09-20T16:54:18.792Z,19.27
2018-09-20T16:56:47.743Z,19.56
2018-09-20T16:59:16.471Z,19.14
2018-09-20T17:01:45.407Z,19.02
2018-09-20T17:04:14.409Z,19.19
2018-09-20T17:06:43.484Z,19.18
2018-09-20T17:09:12.615Z,19.27
2018-09-20T17:11:41.805Z,19.06
2018-09-20T17:14:10.693Z,19.11
2018-09-20T17:16:39.370Z,19.01
2018-09-20T17:19:08.269Z,18.96
2018-09-20T17:21:36.863Z,18.94
2018-09-20T17:24:05.130Z,19.25
2018-09-20T17:26:33.514Z,18.83
2018-09-20T17:29:01.907Z,18.72
2018-09-20T17:31:30.618Z,18.78
2018-09-20T17:33:58.876Z,18.68
2018-09-20T17:36:27.868Z,18.55
2018-09-20T17:38:56.901Z,18.24
2018-09-20T17:41:28.004Z,18.49
2018-09-20T17:44:00.059Z,18.69
2018-09-20T17:46:28.918Z,18.62
2018-09-20T17:48:57.515Z,18.52
2018-09-20T17:51:26.124Z,18.30
2018-09-20T17:53:56.413Z,18.01
2018-09-20T17:56:25.986Z,18.01
2018-09-20T17:58:57.352Z,18.12
2018-09-20T18:01:28.352Z,18.13
2018-09-20T18:03:58.925Z,17.94
2018-09-20T18:06:30.136Z,18.08
2018-09-20T18:08:58.740Z,18.07
2018-09-20T18:11:27.374Z,17.87
2018-09-20T18:13:55.703Z,17.71
2018-09-20T18:16:25.279Z,17.41
2018-09-20T18:18:55.166Z,17.23
2018-09-20T18:21:24.363Z,17.05
2018-09-20T18:23:53.069Z,16.80
2018-09-20T18:26:21.453Z,16.79
2018-09-20T18:28:49.982Z,16.57
2018-09-20T18:31:18.237Z,16.50
2018-09-20T18:33:47.048Z,16.28
2018-09-20T18:36:17.072Z,16.28
2018-09-20T18:38:45.807Z,16.23
2018-09-20T18:41:15.381Z,16.21
2018-09-20T18:43:43.787Z,16.17
2018-09-20T18:46:12.207Z,16.14
2018-09-20T18:48:40.807Z,16.32
2018-09-20T18:51:09.217Z,16.22
2018-09-20T18:53:37.525Z,16.04
2018-09-20T18:56:06.283Z,16.06
2018-09-20T18:58:34.417Z,15.84
2018-09-20T19:01:04.719Z,15.66
2018-09-20T19:03:33.414Z,15.63
2018-09-20T19:06:01.938Z,15.50
2018-09-20T19:08:30.369Z,15.39
2018-09-20T19:10:58.559Z,15.60
2018-09-20T19:13:26.680Z,15.47
2018-09-20T19:15:54.930Z,15.19
2018-09-20T19:18:23.362Z,15.26
2018-09-20T19:20:51.789Z,14.98
2018-09-20T19:23:20.020Z,15.11
2018-09-20T19:25:48.369Z,15.31
2018-09-20T19:28:16.529Z,15.09
2018-09-20T19:30:44.708Z,14.82
2018-09-20T19:33:12.934Z,14.64
2018-09-20T19:35:41.275Z,14.56
2018-09-20T19:38:09.676Z,14.39
2018-09-20T19:40:38.099Z,14.30
2018-09-20T19:43:06.268Z,14.17
2018-09-20T19:45:34.502Z,14.08
2018-09-20T19:48:02.737Z,14.02
2018-09-20T19:50:30.935Z,13.95
2018-09-20T19:52:59.150Z,13.95
2018-09-20T19:55:27.334Z,13.94
2018-09-20T19:57:55.751Z,13.99
2018-09-20T20:00:23.912Z,13.99
2018-09-20T20:02:52.256Z,13.87
2018-09-20T20:05:20.432Z,13.74
2018-09-20T20:07:49.247Z,13.76
2018-09-20T20:10:17.453Z,13.74
2018-09-20T20:12:45.716Z,13.76
2018-09-20T20:15:13.826Z,13.70
2018-09-20T20:17:42.146Z,13.63
2018-09-20T20:20:10.279Z,13.59
2018-09-20T20:22:38.556Z,13.55
2018-09-20T20:25:06.920Z,13.65
2018-09-20T20:27:35.307Z,13.57
2018-09-20T20:30:03.750Z,13.50
2018-09-20T20:32:32.015Z,13.48
2018-09-20T20:35:00.237Z,13.50
2018-09-20T20:37:28.380Z,13.54
2018-09-20T20:39:56.774Z,13.62
2018-09-20T20:42:24.833Z,13.58
2018-09-20T20:44:52.963Z,13.58
2018-09-20T20:47:21.075Z,13.60
2018-09-20T20:49:49.312Z,13.51
2018-09-20T20:52:17.408Z,13.45
2018-09-20T20:54:45.527Z,13.43
2018-09-20T20:57:13.660Z,13.51
2018-09-20T20:59:42.012Z,13.56
2018-09-20T21:02:10.436Z,13.60
2018-09-20T21:04:39.014Z,13.60
2018-09-20T21:07:07.623Z,13.69
2018-09-20T21:09:35.923Z,13.92
2018-09-20T21:12:04.100Z,14.09
2018-09-20T21:14:32.363Z,14.04
2018-09-20T21:17:00.515Z,13.92
2018-09-20T21:19:28.671Z,13.82
2018-09-20T21:21:56.891Z,13.86
2018-09-20T21:24:25.372Z,13.77
2018-09-20T21:26:53.728Z,13.87
2018-09-20T21:29:21.992Z,13.76
2018-09-20T21:31:50.119Z,13.59
2018-09-20T21:34:18.489Z,13.42
2018-09-20T21:36:47.280Z,13.53
2018-09-20T21:39:15.705Z,13.52
2018-09-20T21:41:44.188Z,13.42
2018-09-20T21:44:13.338Z,13.31
2018-09-20T21:46:41.611Z,13.31
2018-09-20T21:49:10.651Z,13.42
2018-09-20T21:51:39.084Z,13.36
2018-09-20T21:54:07.115Z,13.47
2018-09-20T21:56:35.292Z,13.21
2018-09-20T21:59:03.452Z,13.07
2018-09-20T22:01:37.409Z,12.99
2018-09-20T22:04:05.605Z,12.89
2018-09-20T22:06:34.928Z,12.91
2018-09-20T22:09:04.585Z,12.91
2018-09-20T22:11:32.760Z,12.81
2018-09-20T22:14:00.898Z,12.71
2018-09-20T22:16:29.073Z,12.63
2018-09-20T22:18:57.212Z,12.59
2018-09-20T22:21:25.649Z,12.54
2018-09-20T22:23:53.836Z,12.47
2018-09-20T22:26:22.094Z,12.41
2018-09-20T22:28:50.119Z,12.41
2018-09-20T22:31:19.212Z,12.39
2018-09-20T22:33:47.397Z,12.37
2018-09-20T22:36:15.611Z,12.36
2018-09-20T22:38:44.217Z,12.28
2018-09-20T22:41:12.424Z,12.33
2018-09-20T22:43:40.429Z,12.38
2018-09-20T22:46:08.569Z,12.39
2018-09-20T22:48:36.666Z,12.32
2018-09-20T22:51:04.673Z,12.32
2018-09-20T22:53:32.672Z,12.33
2018-09-20T22:56:00.803Z,12.17
2018-09-20T22:58:28.913Z,12.18
2018-09-20T23:00:57.030Z,12.15
2018-09-20T23:03:25.095Z,12.17
2018-09-20T23:05:53.153Z,12.21
2018-09-20T23:08:21.280Z,12.18
2018-09-20T23:10:49.579Z,12.22
2018-09-20T23:13:17.626Z,12.20
2018-09-20T23:15:45.726Z,12.16
2018-09-20T23:18:13.963Z,12.16
2018-09-20T23:20:42.054Z,12.15
2018-09-20T23:23:10.042Z,12.17
2018-09-20T23:25:38.211Z,12.15
2018-09-20T23:28:06.294Z,12.04
2018-09-20T23:30:34.365Z,12.07
2018-09-20T23:33:02.386Z,12.13
2018-09-20T23:35:30.461Z,12.08
2018-09-20T23:37:58.651Z,12.10
2018-09-20T23:40:26.992Z,12.06
2018-09-20T23:42:55.149Z,11.94
2018-09-20T23:45:23.237Z,11.98
2018-09-20T23:47:51.477Z,11.98
2018-09-20T23:50:19.567Z,11.87
2018-09-20T23:52:47.595Z,11.83
2018-09-20T23:55:15.672Z,11.88
2018-09-20T23:57:44.792Z,11.83
